Time;durP1;ratioP1;P1;durP2;ratioP2;P2;SDS_P1;SDS_P2;PMS_P1;PMS_P2;Temp;Humidity;BMP_temperature;BMP_pressure;BME280_temperature;BME280_humidity;BME280_pressure;Samples;Min_cycle;Max_cycle;Signal;HPM_P1;HPM_P2
2023/07/24 00:00:52;;;;;;;4.75;2.10;;;;;;;18.36;100.00;100420.44;4920713;29;20073;-64
2023/07/24 00:03:19;;;;;;;2.85;1.90;;;;;;;18.33;100.00;100415.56;4930313;29;20420;-65
2023/07/24 00:05:45;;;;;;;2.70;1.95;;;;;;;18.33;100.00;100404.94;4925216;29;20138;-64
2023/07/24 00:08:12;;;;;;;2.60;1.85;;;;;;;18.37;100.00;100412.25;4927951;29;20071;-65
2023/07/24 00:10:38;;;;;;;5.50;2.13;;;;;;;18.37;100.00;100404.28;4924587;29;20167;-66
2023/07/24 00:13:05;;;;;;;2.90;1.65;;;;;;;18.38;100.00;100403.28;4917304;29;20079;-64
2023/07/24 00:15:31;;;;;;;3.53;2.00;;;;;;;18.38;100.00;100403.28;4930643;29;20500;-65
2023/07/24 00:17:58;;;;;;;4.05;2.00;;;;;;;18.40;100.00;100404.91;4920249;29;20107;-65
2023/07/24 00:20:25;;;;;;;3.58;1.85;;;;;;;18.42;100.00;100398.34;4930434;29;20425;-65
2023/07/24 00:22:52;;;;;;;2.55;1.80;;;;;;;18.40;100.00;100394.28;4924267;29;20047;-65
2023/07/24 00:25:19;;;;;;;3.95;2.00;;;;;;;18.35;100.00;100385.09;4924354;29;20052;-65
2023/07/24 00:27:45;;;;;;;3.70;1.88;;;;;;;18.41;100.00;100382.66;4909168;29;20052;-65
2023/07/24 00:30:11;;;;;;;3.95;2.20;;;;;;;18.36;100.00;100388.56;4908881;28;20159;-66
2023/07/24 00:32:38;;;;;;;3.38;1.83;;;;;;;18.39;100.00;100396.13;4923192;29;20052;-64
2023/07/24 00:35:05;;;;;;;2.53;1.77;;;;;;;18.36;100.00;100394.69;4917614;29;20138;-64
2023/07/24 00:37:32;;;;;;;5.18;2.28;;;;;;;18.31;100.00;100389.19;4926936;29;20119;-66
2023/07/24 00:39:58;;;;;;;3.10;1.92;;;;;;;18.32;100.00;100382.03;4916867;29;20575;-65
2023/07/24 00:42:25;;;;;;;3.53;2.30;;;;;;;18.31;100.00;100378.59;4917276;29;20398;-66
2023/07/24 00:44:51;;;;;;;3.70;2.17;;;;;;;18.35;100.00;100371.03;4928969;29;20087;-65
2023/07/24 00:47:17;;;;;;;2.92;2.08;;;;;;;18.34;100.00;100372.03;4912142;29;20060;-66
2023/07/24 00:49:46;;;;;;;3.78;2.00;;;;;;;18.33;100.00;100360.59;4929801;29;20600;-65
2023/07/24 00:52:13;;;;;;;3.20;2.10;;;;;;;18.33;100.00;100354.47;4888113;29;20075;-67
2023/07/24 00:54:40;;;;;;;4.45;2.30;;;;;;;18.33;100.00;100357.94;4916296;29;20628;-65
2023/07/24 00:57:07;;;;;;;3.65;1.77;;;;;;;18.33;100.00;100357.94;4919663;29;20067;-65
2023/07/24 00:59:34;;;;;;;5.03;2.30;;;;;;;18.29;100.00;100348.78;4911653;29;20075;-66
2023/07/24 01:02:00;;;;;;;3.75;1.92;;;;;;;18.34;100.00;100346.28;4918942;29;20139;-65
2023/07/24 01:04:27;;;;;;;4.28;2.13;;;;;;;18.29;100.00;100343.47;4912807;29;20118;-65
2023/07/24 01:06:54;;;;;;;4.15;2.42;;;;;;;18.31;100.00;100330.78;4917918;29;20059;-66
2023/07/24 01:09:21;;;;;;;4.72;2.40;;;;;;;18.34;100.00;100338.31;4898642;29;20075;-65
2023/07/24 01:11:57;;;;;;;3.60;2.40;;;;;;;18.34;100.00;100327.69;4924282;29;20052;-65
2023/07/24 01:14:49;;;;;;;4.45;2.50;;;;;;;18.33;100.00;100335.91;4919060;29;20750;-65
2023/07/24 01:17:22;;;;;;;4.15;2.65;;;;;;;18.31;100.00;100328.13;4927205;29;20054;-65
2023/07/24 01:19:54;;;;;;;4.93;2.90;;;;;;;18.28;100.00;100328.53;4923266;28;20497;-65
2023/07/24 01:22:26;;;;;;;3.80;2.80;;;;;;;18.30;100.00;100323.03;4910315;29;20072;-64
2023/07/24 01:25:23;;;;;;;4.68;3.33;;;;;;;18.29;100.00;100327.53;4928361;29;20474;-66
2023/07/24 01:27:49;;;;;;;4.55;3.50;;;;;;;18.27;100.00;100326.09;4911533;29;20486;-66
2023/07/24 01:30:19;;;;;;;5.78;3.78;;;;;;;18.31;100.00;100324.69;4931069;29;20083;-65
2023/07/24 01:32:46;;;;;;;5.32;3.17;;;;;;;18.31;100.00;100316.72;4916358;29;20055;-67
2023/07/24 01:35:13;;;;;;;5.28;3.33;;;;;;;18.32;100.00;100319.13;4926828;29;20056;-66
2023/07/24 01:37:42;;;;;;;5.15;3.20;;;;;;;18.31;100.00;100317.50;4918693;29;20525;-65
2023/07/24 01:40:10;;;;;;;5.00;3.17;;;;;;;18.28;100.00;100312.63;4916860;29;20052;-64
2023/07/24 01:42:37;;;;;;;5.10;3.30;;;;;;;18.30;100.00;100305.25;4921128;29;20107;-66
2023/07/24 01:45:04;;;;;;;6.75;3.70;;;;;;;18.32;100.00;100297.09;4912730;29;20488;-63
2023/07/24 01:47:32;;;;;;;5.97;3.15;;;;;;;18.35;100.00;100304.66;4921410;29;20048;-62
2023/07/24 01:49:58;;;;;;;6.10;3.57;;;;;;;18.33;100.00;100293.41;4917270;29;20106;-63
2023/07/24 01:52:26;;;;;;;5.43;3.42;;;;;;;18.35;100.00;100291.38;4913248;29;20104;-63
2023/07/24 01:54:52;;;;;;;5.15;3.13;;;;;;;18.32;100.00;100295.25;4921755;29;20063;-63
2023/07/24 01:57:19;;;;;;;5.00;3.38;;;;;;;18.32;100.00;100287.28;4913596;29;20510;-64
2023/07/24 01:59:45;;;;;;;5.97;3.30;;;;;;;18.31;100.00;100285.66;4920923;29;20623;-64
2023/07/24 02:02:12;;;;;;;4.70;2.80;;;;;;;18.34;100.00;100284.41;4910591;29;20131;-63
2023/07/24 02:04:38;;;;;;;4.93;3.35;;;;;;;18.36;100.00;100283.16;4919832;29;20056;-63
2023/07/24 02:07:05;;;;;;;6.15;3.30;;;;;;;18.30;100.00;100275.25;4920780;29;20509;-64
2023/07/24 02:09:31;;;;;;;4.85;3.22;;;;;;;18.28;100.00;100275.44;4926481;29;20051;-64
2023/07/24 02:11:58;;;;;;;7.82;3.30;;;;;;;18.27;100.00;100280.97;4917894;29;20143;-63
2023/07/24 02:14:24;;;;;;;6.32;3.17;;;;;;;18.24;100.00;100276.91;4922503;29;20497;-64
2023/07/24 02:16:50;;;;;;;5.07;3.00;;;;;;;18.28;100.00;100278.09;4923049;29;20122;-63
2023/07/24 02:19:17;;;;;;;4.25;3.08;;;;;;;18.29;100.00;100276.28;4915816;29;20744;-64
2023/07/24 02:21:43;;;;;;;6.18;3.50;;;;;;;18.31;100.00;100277.69;4926383;29;20138;-64
2023/07/24 02:24:10;;;;;;;7.95;3.75;;;;;;;18.31;100.00;100272.38;4914994;29;20103;-64
2023/07/24 02:26:36;;;;;;;4.72;3.30;;;;;;;18.38;100.00;100278.50;4927141;29;20150;-64
2023/07/24 02:29:03;;;;;;;5.72;3.67;;;;;;;18.32;100.00;100273.19;4904818;28;20170;-63
2023/07/24 02:31:29;;;;;;;4.85;3.65;;;;;;;18.34;100.00;100265.81;4924075;29;20110;-64
2023/07/24 02:33:56;;;;;;;5.65;3.58;;;;;;;18.35;100.00;100265.63;4918109;29;20196;-64
2023/07/24 02:36:22;;;;;;;5.65;4.13;;;;;;;18.30;100.00;100261.97;4922445;28;20515;-63
2023/07/24 02:38:49;;;;;;;6.80;3.78;;;;;;;18.33;100.00;100264.22;4910679;29;20056;-64
2023/07/24 02:41:15;;;;;;;5.45;3.70;;;;;;;18.33;100.00;100261.56;4903994;29;20797;-63
2023/07/24 02:43:42;;;;;;;7.03;4.68;;;;;;;18.33;100.00;100256.25;4922911;29;20075;-63
2023/07/24 02:46:08;;;;;;;8.10;4.78;;;;;;;18.31;100.00;100263.63;4922549;28;20056;-63
2023/07/24 02:48:35;;;;;;;7.38;5.20;;;;;;;18.26;100.00;100250.94;4927966;29;20492;-63
2023/07/24 02:51:01;;;;;;;7.20;4.88;;;;;;;18.25;100.00;100256.47;4927773;29;20058;-62
2023/07/24 02:53:28;;;;;;;8.43;5.75;;;;;;;18.25;100.00;100259.13;4910438;29;20588;-63
2023/07/24 02:55:54;;;;;;;7.57;5.80;;;;;;;18.23;100.00;100254.03;4921895;29;20051;-64
2023/07/24 02:58:21;;;;;;;7.03;5.15;;;;;;;18.28;100.00;100250.75;4907280;28;20458;-71
2023/07/24 03:00:49;;;;;;;9.68;5.18;;;;;;;18.26;100.00;100250.16;4915078;29;20467;-64
2023/07/24 03:03:17;;;;;;;8.37;5.77;;;;;;;18.24;100.00;100249.53;4919024;29;20044;-64
2023/07/24 03:05:44;;;;;;;9.32;5.57;;;;;;;18.24;100.00;100247.69;4920703;29;20147;-64
2023/07/24 03:08:10;;;;;;;9.07;5.63;;;;;;;18.20;100.00;100245.69;4923280;29;20083;-63
2023/07/24 03:10:40;;;;;;;11.60;5.32;;;;;;;18.15;100.00;100249.78;4911859;29;20368;-62
2023/07/24 03:13:07;;;;;;;7.63;5.38;;;;;;;18.09;100.00;100250.63;4907774;29;20126;-62
2023/07/24 03:15:33;;;;;;;7.63;4.85;;;;;;;18.05;100.00;100233.47;4927280;28;20083;-63
2023/07/24 03:18:00;;;;;;;8.77;5.22;;;;;;;18.07;100.00;100231.44;4926536;29;20052;-64
2023/07/24 03:20:26;;;;;;;8.93;5.68;;;;;;;17.98;100.00;100238.00;4920657;29;20052;-63
2023/07/24 03:22:53;;;;;;;9.60;5.43;;;;;;;18.00;100.00;100227.19;4920082;29;20123;-63
2023/07/24 03:25:19;;;;;;;9.50;5.22;;;;;;;18.02;100.00;100219.81;4923059;29;20063;-63
2023/07/24 03:27:46;;;;;;;8.50;5.45;;;;;;;17.96;100.00;100218.81;4906016;29;20099;-63
2023/07/24 03:30:13;;;;;;;11.77;5.82;;;;;;;17.97;100.00;100218.63;4928479;29;20075;-63
2023/07/24 03:32:39;;;;;;;8.98;5.43;;;;;;;17.93;100.00;100227.19;4924618;29;20512;-65
2023/07/24 03:35:07;;;;;;;8.48;6.13;;;;;;;17.89;100.00;100236.59;4928694;29;20055;-64
2023/07/24 03:37:35;;;;;;;7.07;5.32;;;;;;;17.87;100.00;100238.66;4921754;29;20079;-65
2023/07/24 03:40:02;;;;;;;7.07;5.35;;;;;;;17.84;100.00;100225.78;4927909;29;20052;-63
2023/07/24 03:42:30;;;;;;;7.65;5.43;;;;;;;17.87;100.00;100218.22;4932166;29;20051;-63
2023/07/24 03:44:57;;;;;;;;;;;;;;;17.89;100.00;100220.69;4925814;29;20489;-64
2023/07/24 03:47:24;;;;;;;8.82;5.55;;;;;;;17.89;100.00;100212.72;4930910;29;20303;-64
2023/07/24 03:49:51;;;;;;;7.32;5.28;;;;;;;17.88;100.00;100200.50;4924267;29;20056;-64
2023/07/24 03:52:17;;;;;;;11.23;5.50;;;;;;;17.85;100.00;100208.84;4907979;29;20051;-65
2023/07/24 03:54:44;;;;;;;8.80;5.90;;;;;;;17.88;100.00;100203.16;4913023;29;20066;-64
2023/07/24 03:57:11;;;;;;;9.75;5.25;;;;;;;17.80;100.00;100198.84;4915063;29;20059;-63
2023/07/24 03:59:37;;;;;;;7.65;4.47;;;;;;;17.78;100.00;100196.41;4919657;29;20050;-63
2023/07/24 04:02:04;;;;;;;6.88;4.18;;;;;;;17.74;100.00;100211.09;4912010;29;20056;-64
2023/07/24 04:04:33;;;;;;;9.05;4.60;;;;;;;17.62;100.00;100212.78;4910137;29;20762;-64
2023/07/24 04:07:00;;;;;;;7.47;4.00;;;;;;;17.53;100.00;100206.06;4923807;29;20083;-65
2023/07/24 04:09:27;;;;;;;6.22;4.22;;;;;;;17.54;100.00;100207.66;4914029;29;20064;-64
2023/07/24 04:11:53;;;;;;;5.57;4.60;;;;;;;17.50;100.00;100209.09;4920375;29;20063;-63
2023/07/24 04:14:19;;;;;;;5.68;4.20;;;;;;;17.50;100.00;100214.41;4922174;29;20498;-64
2023/07/24 04:16:46;;;;;;;7.95;4.57;;;;;;;17.47;100.00;100213.00;4916877;29;20056;-63
2023/07/24 04:19:13;;;;;;;5.90;4.22;;;;;;;17.49;100.00;100212.78;4910749;28;20056;-64
2023/07/24 04:21:39;;;;;;;6.72;3.90;;;;;;;17.46;100.00;100210.53;4916594;29;20144;-64
2023/07/24 04:24:06;;;;;;;6.43;3.80;;;;;;;17.46;100.00;100219.31;4922855;29;20051;-63
2023/07/24 04:26:32;;;;;;;5.45;3.75;;;;;;;17.45;100.00;100215.03;4922312;29;20065;-63
2023/07/24 04:29:03;;;;;;;6.63;4.43;;;;;;;17.45;100.00;100212.38;4915983;29;20052;-62
2023/07/24 04:31:29;;;;;;;6.15;4.03;;;;;;;17.42;100.00;100207.47;4927387;29;20546;-65
2023/07/24 04:33:56;;;;;;;6.43;4.30;;;;;;;17.41;100.00;100213.81;4919270;29;20574;-64
2023/07/24 04:36:22;;;;;;;7.07;4.60;;;;;;;17.39;100.00;100206.06;4921349;29;20055;-63
2023/07/24 04:38:49;;;;;;;7.38;4.30;;;;;;;17.36;100.00;100203.81;4928544;28;20163;-63
2023/07/24 04:41:16;;;;;;;7.18;4.50;;;;;;;17.41;100.00;100202.41;4912970;29;20067;-63
2023/07/24 04:43:43;;;;;;;6.97;4.90;;;;;;;17.39;100.00;100205.25;4924874;29;20060;-63
2023/07/24 04:46:09;;;;;;;5.70;4.07;;;;;;;17.39;100.00;100218.50;4915500;29;20572;-65
2023/07/24 04:48:36;;;;;;;7.13;4.30;;;;;;;17.36;100.00;100222.38;4917169;29;20047;-63
2023/07/24 04:51:03;;;;;;;7.63;4.63;;;;;;;17.38;100.00;100219.53;4915715;29;20106;-63
2023/07/24 04:53:29;;;;;;;7.10;5.03;;;;;;;17.36;100.00;100214.41;4924594;29;20131;-64
2023/07/24 04:55:56;;;;;;;6.88;5.15;;;;;;;17.36;100.00;100225.03;4929688;29;20083;-64
2023/07/24 04:58:22;;;;;;;6.88;4.90;;;;;;;17.36;100.00;100224.22;4918973;29;20119;-63
2023/07/24 05:00:48;;;;;;;6.18;4.70;;;;;;;17.36;100.00;100222.38;4920543;29;20047;-63
2023/07/24 05:03:17;;;;;;;8.18;4.75;;;;;;;17.41;100.00;100221.78;4918347;29;20135;-63
2023/07/24 05:05:43;;;;;;;6.13;4.22;;;;;;;17.48;100.00;100221.75;4920943;29;20493;-63
2023/07/24 05:08:13;;;;;;;6.97;4.53;;;;;;;17.54;100.00;100215.63;4927350;29;20173;-63
2023/07/24 05:10:40;;;;;;;7.80;4.68;;;;;;;17.53;100.00;100224.63;4920777;29;20063;-64
2023/07/24 05:13:06;;;;;;;5.70;4.65;;;;;;;17.49;100.00;100218.91;4929684;29;20051;-63
2023/07/24 05:15:33;;;;;;;8.18;4.93;;;;;;;17.51;100.00;100226.66;4919285;29;20110;-64
2023/07/24 05:17:59;;;;;;;6.90;4.43;;;;;;;17.46;100.00;100221.16;4920925;29;20083;-64
2023/07/24 05:20:26;;;;;;;9.85;4.70;;;;;;;17.47;100.00;100226.25;4921822;29;20056;-63
2023/07/24 05:22:52;;;;;;;7.30;5.50;;;;;;;17.38;100.00;100225.63;4919375;29;20119;-63
2023/07/24 05:25:19;;;;;;;8.38;5.50;;;;;;;17.33;100.00;100229.94;4926062;29;20111;-64
2023/07/24 05:27:45;;;;;;;7.95;5.18;;;;;;;17.28;100.00;100235.84;4916892;29;20083;-64
2023/07/24 05:30:12;;;;;;;8.07;4.97;;;;;;;17.28;100.00;100233.19;4918929;29;20143;-64
2023/07/24 05:32:38;;;;;;;13.20;5.63;;;;;;;17.29;100.00;100226.03;4920580;29;20141;-64
2023/07/24 05:35:05;;;;;;;7.20;5.55;;;;;;;17.25;100.00;100230.13;4913711;29;20047;-64
2023/07/24 05:37:31;;;;;;;8.98;5.47;;;;;;;17.24;100.00;100233.81;4923818;29;20056;-63
2023/07/24 05:39:58;;;;;;;10.30;5.25;;;;;;;17.29;100.00;100229.53;4898817;29;20519;-64
2023/07/24 05:42:24;;;;;;;8.40;5.50;;;;;;;17.30;100.00;100230.34;4917181;29;20521;-65
2023/07/24 05:44:51;;;;;;;8.23;5.80;;;;;;;17.31;100.00;100232.78;4907010;29;20127;-63
2023/07/24 05:47:17;;;;;;;8.57;6.10;;;;;;;17.33;100.00;100240.56;4917196;29;20493;-63
2023/07/24 05:49:44;;;;;;;9.02;6.40;;;;;;;17.27;100.00;100246.63;4933664;28;20156;-63
2023/07/24 05:52:10;;;;;;;10.55;5.97;;;;;;;17.31;100.00;100243.41;4929166;29;20091;-65
2023/07/24 05:54:37;;;;;;;8.98;6.50;;;;;;;17.34;100.00;100244.81;4922931;29;20098;-63
2023/07/24 05:57:03;;;;;;;10.40;6.85;;;;;;;17.35;100.00;100247.28;4924478;29;20063;-64
2023/07/24 05:59:30;;;;;;;9.23;6.40;;;;;;;17.32;100.00;100246.84;4917407;29;20056;-65
2023/07/24 06:01:56;;;;;;;9.05;6.85;;;;;;;17.32;100.00;100254.81;4922619;29;20051;-63
2023/07/24 06:04:23;;;;;;;11.13;6.95;;;;;;;17.41;100.00;100250.13;4919139;29;20060;-64
2023/07/24 06:06:49;;;;;;;9.73;6.78;;;;;;;17.43;100.00;100253.38;4918820;29;20064;-64
2023/07/24 06:09:16;;;;;;;9.57;6.40;;;;;;;17.48;100.00;100254.38;4926685;29;20058;-65
2023/07/24 06:11:45;;;;;;;9.85;7.05;;;;;;;17.47;100.00;100260.72;4921978;29;20059;-65
2023/07/24 06:14:11;;;;;;;9.57;6.63;;;;;;;17.43;100.00;100254.19;4927655;29;20058;-64
2023/07/24 06:16:38;;;;;;;11.07;7.82;;;;;;;17.48;100.00;100257.03;4924198;29;20126;-64
2023/07/24 06:19:04;;;;;;;12.25;8.10;;;;;;;17.39;100.00;100251.13;4902439;29;20066;-64
2023/07/24 06:21:30;;;;;;;13.80;7.80;;;;;;;17.41;100.00;100252.78;4927142;29;20059;-64
2023/07/24 06:23:57;;;;;;;11.63;7.53;;;;;;;17.43;100.00;100256.84;4921305;29;20748;-64
2023/07/24 06:26:24;;;;;;;9.93;7.30;;;;;;;17.41;100.00;100258.09;4925328;29;20131;-65
2023/07/24 06:28:50;;;;;;;11.98;7.63;;;;;;;17.46;100.00;100253.78;4922422;29;20652;-64
2023/07/24 06:31:16;;;;;;;12.98;8.20;;;;;;;17.48;100.00;100243.78;4922892;29;20158;-65
2023/07/24 06:33:43;;;;;;;10.55;8.23;;;;;;;17.64;100.00;100244.38;4924295;29;20495;-64
2023/07/24 06:36:10;;;;;;;11.90;8.40;;;;;;;17.63;100.00;100248.06;4913487;28;20683;-65
2023/07/24 06:38:36;;;;;;;10.95;8.48;;;;;;;17.63;100.00;100248.88;4916921;29;20058;-65
2023/07/24 06:41:03;;;;;;;13.20;8.25;;;;;;;17.66;100.00;100245.81;4916041;29;20051;-64
2023/07/24 06:43:29;;;;;;;11.77;9.32;;;;;;;17.65;100.00;100251.31;4918243;29;20108;-66
2023/07/24 06:45:56;;;;;;;11.10;8.93;;;;;;;17.69;100.00;100257.84;4919064;29;20059;-65
2023/07/24 06:48:22;;;;;;;12.80;9.13;;;;;;;17.71;100.00;100259.25;4896768;29;20059;-65
2023/07/24 06:50:49;;;;;;;11.82;8.45;;;;;;;17.72;100.00;100262.72;4921035;29;20070;-65
2023/07/24 06:53:16;;;;;;;13.68;9.57;;;;;;;17.65;100.00;100261.94;4912686;28;20096;-64
2023/07/24 06:55:43;;;;;;;12.30;8.50;;;;;;;17.72;100.00;100266.19;4928172;29;20058;-64
2023/07/24 06:58:09;;;;;;;13.32;9.52;;;;;;;17.79;100.00;100269.63;4913387;29;20079;-66
2023/07/24 07:00:36;;;;;;;11.57;9.25;;;;;;;17.74;100.00;100280.06;4894012;29;20485;-66
2023/07/24 07:03:03;;;;;;;12.30;9.90;;;;;;;17.68;100.00;100280.91;4921481;28;20147;-65
2023/07/24 07:05:31;;;;;;;13.30;10.30;;;;;;;17.67;100.00;100267.84;4923430;29;20898;-64
2023/07/24 07:07:58;;;;;;;12.80;9.27;;;;;;;17.74;100.00;100264.16;4925465;29;20055;-64
2023/07/24 07:10:25;;;;;;;12.27;9.88;;;;;;;17.73;100.00;100272.31;4925607;29;20151;-65
2023/07/24 07:12:52;;;;;;;15.13;10.38;;;;;;;17.77;100.00;100278.84;4924653;29;20416;-65
2023/07/24 07:15:18;;;;;;;13.27;10.10;;;;;;;17.76;100.00;100272.72;4919468;29;20089;-65
2023/07/24 07:17:45;;;;;;;11.93;10.60;;;;;;;17.78;100.00;100262.72;4928302;29;20056;-65
2023/07/24 07:20:11;;;;;;;12.90;10.95;;;;;;;17.92;100.00;100270.69;4925072;29;20481;-64
2023/07/24 07:22:38;;;;;;;14.32;10.55;;;;;;;18.05;100.00;100272.47;4930406;29;20060;-64
2023/07/24 07:25:05;;;;;;;15.27;10.57;;;;;;;18.06;100.00;100272.25;4908245;29;20116;-64
2023/07/24 07:27:31;;;;;;;14.32;10.32;;;;;;;18.10;100.00;100276.13;4917144;29;20060;-64
2023/07/24 07:29:57;;;;;;;14.70;11.43;;;;;;;18.22;100.00;100276.28;4910020;29;20472;-65
2023/07/24 07:32:24;;;;;;;16.13;10.60;;;;;;;18.25;100.00;100272.38;4924879;29;20051;-64
2023/07/24 07:34:51;;;;;;;16.67;11.52;;;;;;;18.27;100.00;100275.66;4930437;29;20051;-65
2023/07/24 07:37:17;;;;;;;15.10;10.80;;;;;;;18.34;100.00;100257.88;4916476;28;20074;-65
2023/07/24 07:39:44;;;;;;;14.25;10.40;;;;;;;18.36;100.00;100261.13;4923903;29;20146;-66
2023/07/24 07:42:10;;;;;;;13.63;10.98;;;;;;;18.41;100.00;100255.19;4924360;29;20059;-65
2023/07/24 07:44:45;;;;;;;14.35;10.77;;;;;;;18.28;100.00;100262.16;4922430;28;20062;-66
2023/07/24 07:47:11;;;;;;;17.60;11.18;;;;;;;18.25;100.00;100259.13;4916708;29;20055;-66
2023/07/24 07:49:40;;;;;;;14.60;10.50;;;;;;;18.33;100.00;100258.91;4924188;28;20064;-64
2023/07/24 07:52:09;;;;;;;14.93;11.27;;;;;;;18.33;100.00;100248.28;4928871;29;20056;-65
2023/07/24 07:54:35;;;;;;;16.33;11.02;;;;;;;18.30;100.00;100264.63;4926198;28;20075;-64
2023/07/24 07:57:03;;;;;;;14.75;11.90;;;;;;;18.29;100.00;100260.34;4929273;29;20142;-65
2023/07/24 07:59:30;;;;;;;16.13;10.75;;;;;;;18.42;100.00;100251.50;4931033;29;20059;-65
2023/07/24 08:01:57;;;;;;;13.75;10.30;;;;;;;18.43;100.00;100248.63;4924207;29;20071;-65
2023/07/24 08:04:24;;;;;;;14.30;10.57;;;;;;;18.49;100.00;100249.63;4926968;29;20106;-64
2023/07/24 08:06:50;;;;;;;15.82;11.27;;;;;;;18.43;100.00;100245.19;4916165;29;20059;-65
2023/07/24 08:09:17;;;;;;;14.65;11.27;;;;;;;18.36;100.00;100246.00;4913737;29;20549;-64
2023/07/24 08:11:44;;;;;;;13.73;10.63;;;;;;;18.39;100.00;100242.13;4918454;29;20098;-64
2023/07/24 08:14:10;;;;;;;12.57;9.70;;;;;;;18.35;100.00;100248.88;4917114;29;20051;-65
2023/07/24 08:16:36;;;;;;;21.10;11.90;;;;;;;18.24;100.00;100252.19;4923230;29;20055;-66
2023/07/24 08:19:03;;;;;;;16.20;12.48;;;;;;;18.30;100.00;100256.66;4910211;28;20075;-64
2023/07/24 08:21:29;;;;;;;17.00;12.85;;;;;;;18.29;100.00;100250.53;4911531;29;20183;-66
2023/07/24 08:23:57;;;;;;;13.40;9.80;;;;;;;18.34;100.00;100248.03;4919812;29;20513;-65
2023/07/24 08:26:26;;;;;;;15.15;10.48;;;;;;;18.32;100.00;100246.63;4925469;29;20329;-64
2023/07/24 08:28:53;;;;;;;11.70;9.65;;;;;;;18.39;100.00;100242.13;4915926;29;20143;-65
2023/07/24 08:31:19;;;;;;;14.02;10.82;;;;;;;18.41;100.00;100248.03;4923425;29;20121;-64
2023/07/24 08:33:46;;;;;;;13.32;10.25;;;;;;;18.48;100.00;100256.75;4936074;29;20860;-65
2023/07/24 08:36:12;;;;;;;13.57;9.65;;;;;;;18.45;100.00;100248.44;4910480;29;20078;-63
2023/07/24 08:38:40;;;;;;;12.50;9.80;;;;;;;18.41;100.00;100253.34;4915071;29;20059;-67
2023/07/24 08:41:10;;;;;;;12.02;9.85;;;;;;;18.36;100.00;100267.25;4918408;29;20048;-65
2023/07/24 08:43:39;;;;;;;12.50;9.90;;;;;;;18.41;100.00;100257.84;4924415;29;20207;-64
2023/07/24 08:46:07;;;;;;;13.13;10.30;;;;;;;18.54;100.00;100261.25;4909769;28;20111;-65
2023/07/24 08:48:39;;;;;;;17.42;10.27;;;;;;;18.65;100.00;100253.63;4927349;29;20074;-64
2023/07/24 08:51:07;;;;;;;14.18;10.23;;;;;;;18.73;100.00;100253.38;4930079;29;20098;-63
2023/07/24 08:53:36;;;;;;;12.70;10.25;;;;;;;18.87;100.00;100254.13;4916923;29;20071;-64
2023/07/24 08:56:04;;;;;;;12.15;10.48;;;;;;;19.14;100.00;100246.78;4921971;29;20565;-65
2023/07/24 08:58:31;;;;;;;16.00;10.60;;;;;;;19.29;100.00;100241.16;4916664;29;20052;-65
2023/07/24 09:00:58;;;;;;;13.93;10.55;;;;;;;19.17;100.00;100241.03;4914377;29;20051;-66
2023/07/24 09:03:25;;;;;;;13.95;10.23;;;;;;;19.35;100.00;100238.41;4922578;29;20056;-64
2023/07/24 09:05:52;;;;;;;11.15;9.57;;;;;;;19.56;100.00;100234.53;4924050;29;20398;-66
2023/07/24 09:08:32;;;;;;;11.57;9.50;;;;;;;19.81;100.00;100230.22;4928117;29;20048;-65
2023/07/24 09:11:01;;;;;;;12.45;9.55;;;;;;;19.90;100.00;100224.38;4919229;29;20123;-64
2023/07/24 09:13:27;;;;;;;;;;;;;;;20.21;100.00;100227.91;4923197;29;20569;-64
2023/07/24 09:15:55;;;;;;;10.93;9.48;;;;;;;20.06;100.00;100224.81;4915583;29;20129;-65
2023/07/24 09:18:22;;;;;;;11.87;9.30;;;;;;;20.30;100.00;100223.06;4928865;29;20482;-66
2023/07/24 09:20:49;;;;;;;12.27;9.52;;;;;;;20.22;100.00;100226.06;4919800;29;20047;-64
2023/07/24 09:23:26;;;;;;;11.82;9.85;;;;;;;20.12;100.00;100214.06;4928047;29;20047;-65
2023/07/24 09:25:52;;;;;;;10.75;9.00;;;;;;;20.18;100.00;100209.72;4924977;29;20054;-64
2023/07/24 09:28:20;;;;;;;12.52;9.07;;;;;;;20.31;100.00;100201.56;4917627;29;20052;-64
2023/07/24 09:30:58;;;;;;;11.35;8.80;;;;;;;20.32;100.00;100197.03;4928210;29;20164;-64
2023/07/24 09:33:36;;;;;;;12.13;7.93;;;;;;;20.53;100.00;100201.06;4923175;29;20055;-63
2023/07/24 09:36:08;;;;;;;10.88;8.23;;;;;;;20.54;100.00;100184.84;4927762;29;20075;-67
2023/07/24 09:38:35;;;;;;;11.10;8.73;;;;;;;20.59;100.00;100192.19;4917843;29;20102;-64
2023/07/24 09:41:03;;;;;;;11.23;8.43;;;;;;;20.44;100.00;100181.91;4924650;29;20091;-64
2023/07/24 09:43:30;;;;;;;12.68;8.95;;;;;;;20.43;100.00;100185.63;4917398;29;20293;-64
2023/07/24 09:46:09;;;;;;;11.38;9.00;;;;;;;20.44;100.00;100186.41;4927791;29;20493;-64
2023/07/24 09:48:37;;;;;;;10.52;7.78;;;;;;;20.76;100.00;100176.34;4931818;29;20071;-64
2023/07/24 09:51:11;;;;;;;12.65;7.85;;;;;;;20.73;100.00;100180.25;4922139;29;20190;-64
2023/07/24 09:53:58;;;;;;;11.23;8.05;;;;;;;20.49;100.00;100186.56;4924924;29;20469;-64
2023/07/24 09:56:25;;;;;;;14.15;8.85;;;;;;;20.20;100.00;100202.31;4906037;29;20054;-64
2023/07/24 09:59:13;;;;;;;10.18;8.32;;;;;;;20.21;100.00;100181.81;4924581;29;20062;-64
2023/07/24 10:01:40;;;;;;;;;;;;;;;20.21;100.00;100179.16;4911423;29;20047;-67
2023/07/24 10:04:08;;;;;;;11.82;7.68;;;;;;;20.03;100.00;100180.00;4921510;29;19922;-66
2023/07/24 10:06:37;;;;;;;9.75;7.80;;;;;;;19.97;100.00;100173.72;4921838;28;20058;-64
2023/07/24 10:09:03;;;;;;;12.77;7.75;;;;;;;19.93;100.00;100175.22;4912791;29;21066;-64
2023/07/24 10:11:30;;;;;;;10.48;7.63;;;;;;;19.87;100.00;100176.91;4923604;29;20142;-65
2023/07/24 10:13:57;;;;;;;11.77;7.10;;;;;;;19.88;100.00;100183.88;4917307;29;20047;-64
2023/07/24 10:16:24;;;;;;;9.98;6.97;;;;;;;19.85;100.00;100156.88;4916044;29;20059;-64
2023/07/24 10:18:50;;;;;;;13.13;7.28;;;;;;;19.86;100.00;100164.66;4921876;29;20055;-64
2023/07/24 10:21:18;;;;;;;10.65;6.80;;;;;;;19.81;100.00;100159.19;4912353;29;20408;-65
2023/07/24 10:23:48;;;;;;;9.82;6.30;;;;;;;20.00;100.00;100154.66;4906913;29;20047;-64
2023/07/24 10:26:20;;;;;;;8.52;6.60;;;;;;;19.91;100.00;100156.78;4913665;29;20143;-66
2023/07/24 10:28:48;;;;;;;8.90;6.25;;;;;;;19.98;100.00;100135.44;4914814;29;20138;-65
2023/07/24 10:31:22;;;;;;;9.60;7.47;;;;;;;19.94;100.00;100134.25;4916565;29;20059;-66
2023/07/24 10:33:49;;;;;;;10.35;6.68;;;;;;;19.99;100.00;100138.91;4919670;29;20432;-66
2023/07/24 10:36:22;;;;;;;8.55;6.50;;;;;;;20.09;100.00;100147.16;4903217;29;20060;-64
2023/07/24 10:38:56;;;;;;;9.90;7.03;;;;;;;20.07;100.00;100152.72;4923029;29;20055;-66
2023/07/24 10:41:22;;;;;;;10.88;6.65;;;;;;;20.12;100.00;100152.03;4921232;29;20706;-64
2023/07/24 10:43:51;;;;;;;10.00;7.40;;;;;;;20.16;100.00;100147.88;4927287;29;20058;-65
2023/07/24 10:46:19;;;;;;;8.55;7.07;;;;;;;20.21;100.00;100149.84;4921094;29;20086;-65
2023/07/24 10:48:51;;;;;;;11.65;7.05;;;;;;;20.22;100.00;100156.81;4904340;29;20076;-65
2023/07/24 10:51:18;;;;;;;9.75;6.97;;;;;;;20.20;100.00;100164.22;4915469;29;20160;-66
2023/07/24 10:53:47;;;;;;;8.75;6.97;;;;;;;20.06;100.00;100175.06;4914461;29;20048;-71
2023/07/24 10:56:14;;;;;;;9.98;7.47;;;;;;;19.99;100.00;100178.81;4927813;29;20152;-73
2023/07/24 10:58:41;;;;;;;10.43;7.40;;;;;;;20.06;100.00;100171.59;4919364;29;20081;-74
2023/07/24 11:01:09;;;;;;;9.60;7.38;;;;;;;19.89;100.00;100177.50;4928950;29;20067;-72
2023/07/24 11:03:36;;;;;;;11.43;8.10;;;;;;;19.74;100.00;100177.09;4923694;29;20055;-72
2023/07/24 11:06:03;;;;;;;9.63;7.73;;;;;;;19.74;100.00;100187.75;4920133;29;20449;-72
2023/07/24 11:08:31;;;;;;;13.18;9.38;;;;;;;19.70;100.00;100195.31;4928288;29;20906;-73
2023/07/24 11:10:58;;;;;;;11.25;9.35;;;;;;;19.61;100.00;100201.16;4919251;29;20078;-71
2023/07/24 11:13:26;;;;;;;14.38;10.52;;;;;;;19.49;100.00;100198.41;4929347;29;20119;-72
2023/07/24 11:15:54;;;;;;;11.60;9.48;;;;;;;19.51;100.00;100218.41;4905498;29;20067;-71